7M7 weather

Piggott Municipal Airport
Piggott, Arkansas, United States

Public forecast

Using degrees Fahrenheit for public forecast. Weather courtesy of forecast.io.

Closest aviation weather report (METAR) to Piggott Municipal Airport

Closest report is Kennett Memorial Airport, 11.1 nm (20.5 km) SE. Retrieved 2020/07/14 20:35 UTC (1 minute ago):

KTKX 142035Z AUTO 11007KT 10SM CLR 34/19 A2997 RMK AO2

Closest aviation forecast (TAF) to Piggott Municipal Airport

Closest forecast is Jonesboro Municipal Airport, 40.2 nm (74.5 km) SW. Retrieved 2020/07/14 18:34 UTC (2 hours ago):

TAF KJBR 141732Z 1418/1518 14008KT P6SM SCT050 SCT150 FM150100 12004KT P6SM SCT060 BKN150 FM150900 14005KT P6SM VCSH BKN040 FM151400 18010KT P6SM SCT045 BKN150